sensor_id;sensor_type;location;lat;lon;timestamp;P1;durP1;ratioP1;P2;durP2;ratioP2
8919;SDS011;4495;42.644;23.274;2024-03-02T00:00:00;22.67;;;9.60;;
8919;SDS011;4495;42.644;23.274;2024-03-02T00:02:25;22.05;;;9.73;;
8919;SDS011;4495;42.644;23.274;2024-03-02T00:04:51;23.30;;;9.90;;
8919;SDS011;4495;42.644;23.274;2024-03-02T00:07:16;19.95;;;9.02;;
8919;SDS011;4495;42.644;23.274;2024-03-02T00:09:43;24.38;;;9.60;;
8919;SDS011;4495;42.644;23.274;2024-03-02T00:12:10;24.27;;;10.13;;
8919;SDS011;4495;42.644;23.274;2024-03-02T00:14:40;25.13;;;9.95;;
8919;SDS011;4495;42.644;23.274;2024-03-02T00:17:08;22.67;;;9.65;;
8919;SDS011;4495;42.644;23.274;2024-03-02T00:19:41;18.63;;;8.65;;
8919;SDS011;4495;42.644;23.274;2024-03-02T00:22:07;19.80;;;9.23;;
8919;SDS011;4495;42.644;23.274;2024-03-02T00:24:34;21.75;;;10.20;;
8919;SDS011;4495;42.644;23.274;2024-03-02T00:27:00;21.55;;;10.52;;
8919;SDS011;4495;42.644;23.274;2024-03-02T00:29:28;24.67;;;11.00;;
8919;SDS011;4495;42.644;23.274;2024-03-02T00:31:54;25.00;;;10.43;;
8919;SDS011;4495;42.644;23.274;2024-03-02T00:34:20;25.45;;;10.85;;
8919;SDS011;4495;42.644;23.274;2024-03-02T00:36:46;22.95;;;11.23;;
8919;SDS011;4495;42.644;23.274;2024-03-02T00:39:13;28.60;;;11.05;;
8919;SDS011;4495;42.644;23.274;2024-03-02T00:41:42;26.73;;;10.65;;
8919;SDS011;4495;42.644;23.274;2024-03-02T00:44:09;23.73;;;11.23;;
8919;SDS011;4495;42.644;23.274;2024-03-02T00:46:37;29.17;;;11.15;;
8919;SDS011;4495;42.644;23.274;2024-03-02T00:49:05;26.95;;;11.05;;
8919;SDS011;4495;42.644;23.274;2024-03-02T00:51:37;24.00;;;10.68;;
8919;SDS011;4495;42.644;23.274;2024-03-02T00:54:05;22.83;;;10.50;;
8919;SDS011;4495;42.644;23.274;2024-03-02T00:56:31;23.73;;;10.55;;
8919;SDS011;4495;42.644;23.274;2024-03-02T00:58:58;22.40;;;10.52;;
8919;SDS011;4495;42.644;23.274;2024-03-02T01:01:23;23.23;;;10.98;;
8919;SDS011;4495;42.644;23.274;2024-03-02T01:03:49;28.50;;;11.70;;
8919;SDS011;4495;42.644;23.274;2024-03-02T01:06:15;24.80;;;10.80;;
8919;SDS011;4495;42.644;23.274;2024-03-02T01:08:41;23.35;;;11.68;;
8919;SDS011;4495;42.644;23.274;2024-03-02T01:11:06;30.60;;;12.88;;
8919;SDS011;4495;42.644;23.274;2024-03-02T01:13:32;27.33;;;11.40;;
8919;SDS011;4495;42.644;23.274;2024-03-02T01:15:57;29.35;;;12.02;;
8919;SDS011;4495;42.644;23.274;2024-03-02T01:18:23;26.50;;;12.45;;
8919;SDS011;4495;42.644;23.274;2024-03-02T01:20:49;26.58;;;11.55;;
8919;SDS011;4495;42.644;23.274;2024-03-02T01:23:20;27.10;;;10.70;;
8919;SDS011;4495;42.644;23.274;2024-03-02T01:25:46;30.40;;;10.85;;
8919;SDS011;4495;42.644;23.274;2024-03-02T01:28:12;33.35;;;13.43;;
8919;SDS011;4495;42.644;23.274;2024-03-02T01:30:38;34.75;;;13.23;;
8919;SDS011;4495;42.644;23.274;2024-03-02T01:33:04;34.60;;;13.50;;
8919;SDS011;4495;42.644;23.274;2024-03-02T01:35:30;30.83;;;12.38;;
8919;SDS011;4495;42.644;23.274;2024-03-02T01:37:56;30.98;;;12.32;;
8919;SDS011;4495;42.644;23.274;2024-03-02T01:40:22;32.13;;;12.10;;
8919;SDS011;4495;42.644;23.274;2024-03-02T01:42:51;28.65;;;13.02;;
8919;SDS011;4495;42.644;23.274;2024-03-02T01:45:19;33.20;;;12.65;;
8919;SDS011;4495;42.644;23.274;2024-03-02T01:47:44;32.72;;;13.80;;
8919;SDS011;4495;42.644;23.274;2024-03-02T01:50:10;31.55;;;12.13;;
8919;SDS011;4495;42.644;23.274;2024-03-02T01:52:36;27.92;;;11.82;;
8919;SDS011;4495;42.644;23.274;2024-03-02T01:55:02;30.10;;;12.88;;
8919;SDS011;4495;42.644;23.274;2024-03-02T01:57:28;27.42;;;11.88;;
8919;SDS011;4495;42.644;23.274;2024-03-02T01:59:54;29.13;;;12.55;;
8919;SDS011;4495;42.644;23.274;2024-03-02T02:02:20;30.95;;;13.82;;
8919;SDS011;4495;42.644;23.274;2024-03-02T02:04:46;30.08;;;13.00;;
8919;SDS011;4495;42.644;23.274;2024-03-02T02:07:11;33.47;;;13.27;;
8919;SDS011;4495;42.644;23.274;2024-03-02T02:09:39;27.55;;;12.35;;
8919;SDS011;4495;42.644;23.274;2024-03-02T02:12:05;26.10;;;11.88;;
8919;SDS011;4495;42.644;23.274;2024-03-02T02:14:31;27.77;;;11.95;;
8919;SDS011;4495;42.644;23.274;2024-03-02T02:16:57;30.13;;;12.63;;
8919;SDS011;4495;42.644;23.274;2024-03-02T02:19:22;27.23;;;12.43;;
8919;SDS011;4495;42.644;23.274;2024-03-02T02:21:48;30.38;;;12.45;;
8919;SDS011;4495;42.644;23.274;2024-03-02T02:24:13;31.95;;;12.35;;
8919;SDS011;4495;42.644;23.274;2024-03-02T02:26:39;29.08;;;12.35;;
8919;SDS011;4495;42.644;23.274;2024-03-02T02:29:04;25.80;;;10.73;;
8919;SDS011;4495;42.644;23.274;2024-03-02T02:31:39;28.17;;;11.73;;
8919;SDS011;4495;42.644;23.274;2024-03-02T02:34:05;25.98;;;10.65;;
8919;SDS011;4495;42.644;23.274;2024-03-02T02:36:34;22.58;;;9.98;;
8919;SDS011;4495;42.644;23.274;2024-03-02T02:39:02;26.73;;;10.02;;
8919;SDS011;4495;42.644;23.274;2024-03-02T02:41:29;20.85;;;10.30;;
8919;SDS011;4495;42.644;23.274;2024-03-02T02:43:55;22.13;;;9.85;;
8919;SDS011;4495;42.644;23.274;2024-03-02T02:46:21;22.92;;;10.68;;
8919;SDS011;4495;42.644;23.274;2024-03-02T02:48:46;24.52;;;10.20;;
8919;SDS011;4495;42.644;23.274;2024-03-02T02:51:12;21.20;;;10.05;;
8919;SDS011;4495;42.644;23.274;2024-03-02T02:53:37;19.70;;;9.05;;
8919;SDS011;4495;42.644;23.274;2024-03-02T02:56:06;22.52;;;9.20;;
8919;SDS011;4495;42.644;23.274;2024-03-02T02:58:31;23.00;;;10.27;;
8919;SDS011;4495;42.644;23.274;2024-03-02T03:00:57;24.95;;;10.65;;
8919;SDS011;4495;42.644;23.274;2024-03-02T03:03:22;22.77;;;10.27;;
8919;SDS011;4495;42.644;23.274;2024-03-02T03:05:48;19.98;;;9.32;;
8919;SDS011;4495;42.644;23.274;2024-03-02T03:08:14;25.08;;;10.48;;
8919;SDS011;4495;42.644;23.274;2024-03-02T03:10:41;27.30;;;10.65;;
8919;SDS011;4495;42.644;23.274;2024-03-02T03:13:06;23.85;;;11.60;;
8919;SDS011;4495;42.644;23.274;2024-03-02T03:15:34;23.13;;;9.48;;
8919;SDS011;4495;42.644;23.274;2024-03-02T03:18:00;27.83;;;11.23;;
8919;SDS011;4495;42.644;23.274;2024-03-02T03:20:25;26.58;;;11.63;;
8919;SDS011;4495;42.644;23.274;2024-03-02T03:22:50;26.73;;;12.10;;
8919;SDS011;4495;42.644;23.274;2024-03-02T03:25:16;27.15;;;11.05;;
8919;SDS011;4495;42.644;23.274;2024-03-02T03:27:41;26.52;;;11.50;;
8919;SDS011;4495;42.644;23.274;2024-03-02T03:30:07;27.33;;;10.60;;
8919;SDS011;4495;42.644;23.274;2024-03-02T03:32:32;25.70;;;11.13;;
8919;SDS011;4495;42.644;23.274;2024-03-02T03:34:58;24.00;;;10.40;;
8919;SDS011;4495;42.644;23.274;2024-03-02T03:37:23;27.48;;;11.18;;
8919;SDS011;4495;42.644;23.274;2024-03-02T03:39:50;27.00;;;10.30;;
8919;SDS011;4495;42.644;23.274;2024-03-02T03:42:16;30.75;;;12.30;;
8919;SDS011;4495;42.644;23.274;2024-03-02T03:44:41;34.13;;;13.60;;
8919;SDS011;4495;42.644;23.274;2024-03-02T03:47:07;30.52;;;13.32;;
8919;SDS011;4495;42.644;23.274;2024-03-02T03:49:32;32.22;;;13.07;;
8919;SDS011;4495;42.644;23.274;2024-03-02T03:51:58;34.47;;;13.88;;
8919;SDS011;4495;42.644;23.274;2024-03-02T03:54:23;39.42;;;15.48;;
8919;SDS011;4495;42.644;23.274;2024-03-02T03:56:49;39.97;;;15.57;;
8919;SDS011;4495;42.644;23.274;2024-03-02T03:59:14;34.28;;;14.98;;
8919;SDS011;4495;42.644;23.274;2024-03-02T04:01:39;41.25;;;15.48;;
8919;SDS011;4495;42.644;23.274;2024-03-02T04:04:05;38.47;;;16.88;;
8919;SDS011;4495;42.644;23.274;2024-03-02T04:06:30;37.83;;;15.88;;
8919;SDS011;4495;42.644;23.274;2024-03-02T04:08:56;41.03;;;16.40;;
8919;SDS011;4495;42.644;23.274;2024-03-02T04:11:21;38.30;;;14.13;;
8919;SDS011;4495;42.644;23.274;2024-03-02T04:13:47;36.28;;;14.63;;
8919;SDS011;4495;42.644;23.274;2024-03-02T04:16:12;37.08;;;15.68;;
8919;SDS011;4495;42.644;23.274;2024-03-02T04:18:37;36.38;;;15.10;;
8919;SDS011;4495;42.644;23.274;2024-03-02T04:21:04;33.05;;;15.18;;
8919;SDS011;4495;42.644;23.274;2024-03-02T04:23:30;39.72;;;16.25;;
8919;SDS011;4495;42.644;23.274;2024-03-02T04:25:55;41.83;;;17.60;;
8919;SDS011;4495;42.644;23.274;2024-03-02T04:28:21;39.97;;;16.80;;
8919;SDS011;4495;42.644;23.274;2024-03-02T04:30:46;40.90;;;17.30;;
8919;SDS011;4495;42.644;23.274;2024-03-02T04:33:11;44.60;;;18.20;;
8919;SDS011;4495;42.644;23.274;2024-03-02T04:35:37;44.95;;;17.80;;
8919;SDS011;4495;42.644;23.274;2024-03-02T04:38:02;39.17;;;16.48;;
8919;SDS011;4495;42.644;23.274;2024-03-02T04:40:28;39.75;;;16.38;;
8919;SDS011;4495;42.644;23.274;2024-03-02T04:42:53;42.10;;;17.30;;
8919;SDS011;4495;42.644;23.274;2024-03-02T04:45:19;39.03;;;16.52;;
8919;SDS011;4495;42.644;23.274;2024-03-02T04:47:44;39.33;;;16.33;;
8919;SDS011;4495;42.644;23.274;2024-03-02T04:50:10;35.40;;;15.57;;
8919;SDS011;4495;42.644;23.274;2024-03-02T04:52:35;40.35;;;16.13;;
8919;SDS011;4495;42.644;23.274;2024-03-02T04:55:01;41.35;;;17.20;;
8919;SDS011;4495;42.644;23.274;2024-03-02T04:57:42;48.60;;;16.15;;
8919;SDS011;4495;42.644;23.274;2024-03-02T05:00:08;37.05;;;16.70;;
8919;SDS011;4495;42.644;23.274;2024-03-02T05:02:34;43.25;;;16.75;;
8919;SDS011;4495;42.644;23.274;2024-03-02T05:05:00;36.70;;;17.25;;
8919;SDS011;4495;42.644;23.274;2024-03-02T05:07:26;43.47;;;18.20;;
8919;SDS011;4495;42.644;23.274;2024-03-02T05:09:51;34.50;;;15.52;;
8919;SDS011;4495;42.644;23.274;2024-03-02T05:12:17;42.22;;;15.85;;
8919;SDS011;4495;42.644;23.274;2024-03-02T05:14:42;40.05;;;16.70;;
8919;SDS011;4495;42.644;23.274;2024-03-02T05:17:08;39.42;;;16.77;;
8919;SDS011;4495;42.644;23.274;2024-03-02T05:19:33;39.95;;;16.98;;
8919;SDS011;4495;42.644;23.274;2024-03-02T05:21:59;45.35;;;18.17;;
8919;SDS011;4495;42.644;23.274;2024-03-02T05:24:24;45.55;;;18.10;;
8919;SDS011;4495;42.644;23.274;2024-03-02T05:26:52;50.05;;;18.67;;
8919;SDS011;4495;42.644;23.274;2024-03-02T05:29:18;42.47;;;18.67;;
8919;SDS011;4495;42.644;23.274;2024-03-02T05:31:43;49.85;;;19.00;;
8919;SDS011;4495;42.644;23.274;2024-03-02T05:34:09;46.83;;;18.00;;
8919;SDS011;4495;42.644;23.274;2024-03-02T05:36:34;44.85;;;17.88;;
8919;SDS011;4495;42.644;23.274;2024-03-02T05:39:00;47.00;;;16.55;;
8919;SDS011;4495;42.644;23.274;2024-03-02T05:41:26;50.92;;;21.45;;
8919;SDS011;4495;42.644;23.274;2024-03-02T05:43:52;43.90;;;19.38;;
8919;SDS011;4495;42.644;23.274;2024-03-02T05:46:17;44.53;;;17.58;;
8919;SDS011;4495;42.644;23.274;2024-03-02T05:48:42;41.15;;;18.17;;
8919;SDS011;4495;42.644;23.274;2024-03-02T05:51:08;45.75;;;17.02;;
8919;SDS011;4495;42.644;23.274;2024-03-02T05:53:33;39.65;;;16.15;;
8919;SDS011;4495;42.644;23.274;2024-03-02T05:55:59;39.72;;;17.40;;
8919;SDS011;4495;42.644;23.274;2024-03-02T05:58:24;42.38;;;17.63;;
8919;SDS011;4495;42.644;23.274;2024-03-02T06:01:08;39.70;;;16.70;;
8919;SDS011;4495;42.644;23.274;2024-03-02T06:03:33;40.83;;;17.23;;
8919;SDS011;4495;42.644;23.274;2024-03-02T06:05:59;40.88;;;18.00;;
8919;SDS011;4495;42.644;23.274;2024-03-02T06:08:24;41.33;;;16.63;;
8919;SDS011;4495;42.644;23.274;2024-03-02T06:10:50;44.88;;;18.48;;
8919;SDS011;4495;42.644;23.274;2024-03-02T06:13:15;41.40;;;18.05;;
8919;SDS011;4495;42.644;23.274;2024-03-02T06:15:41;41.60;;;18.17;;
8919;SDS011;4495;42.644;23.274;2024-03-02T06:18:06;48.42;;;17.95;;
8919;SDS011;4495;42.644;23.274;2024-03-02T06:20:32;40.63;;;16.67;;
8919;SDS011;4495;42.644;23.274;2024-03-02T06:22:58;42.03;;;18.23;;
8919;SDS011;4495;42.644;23.274;2024-03-02T06:25:23;45.78;;;17.92;;
8919;SDS011;4495;42.644;23.274;2024-03-02T06:27:49;50.15;;;18.08;;
8919;SDS011;4495;42.644;23.274;2024-03-02T06:30:14;44.28;;;17.17;;
8919;SDS011;4495;42.644;23.274;2024-03-02T06:32:40;40.08;;;17.13;;
8919;SDS011;4495;42.644;23.274;2024-03-02T06:35:05;41.97;;;16.48;;
8919;SDS011;4495;42.644;23.274;2024-03-02T06:37:33;43.88;;;17.52;;
8919;SDS011;4495;42.644;23.274;2024-03-02T06:39:59;45.05;;;19.70;;
8919;SDS011;4495;42.644;23.274;2024-03-02T06:42:24;45.63;;;19.00;;
8919;SDS011;4495;42.644;23.274;2024-03-02T06:44:49;42.72;;;17.33;;
8919;SDS011;4495;42.644;23.274;2024-03-02T06:47:15;40.28;;;17.42;;
8919;SDS011;4495;42.644;23.274;2024-03-02T06:49:42;41.40;;;17.17;;
8919;SDS011;4495;42.644;23.274;2024-03-02T06:52:07;40.15;;;15.63;;
8919;SDS011;4495;42.644;23.274;2024-03-02T06:54:32;39.72;;;16.48;;
8919;SDS011;4495;42.644;23.274;2024-03-02T06:56:59;34.00;;;14.13;;
8919;SDS011;4495;42.644;23.274;2024-03-02T06:59:25;30.05;;;13.60;;
8919;SDS011;4495;42.644;23.274;2024-03-02T07:01:50;26.75;;;11.65;;
8919;SDS011;4495;42.644;23.274;2024-03-02T07:04:16;28.95;;;11.30;;
8919;SDS011;4495;42.644;23.274;2024-03-02T07:06:41;24.35;;;10.45;;
8919;SDS011;4495;42.644;23.274;2024-03-02T07:09:07;25.70;;;10.98;;
8919;SDS011;4495;42.644;23.274;2024-03-02T07:11:36;24.40;;;11.18;;
8919;SDS011;4495;42.644;23.274;2024-03-02T07:14:01;24.83;;;9.95;;
8919;SDS011;4495;42.644;23.274;2024-03-02T07:16:27;23.73;;;11.10;;
8919;SDS011;4495;42.644;23.274;2024-03-02T07:18:58;23.02;;;10.10;;
8919;SDS011;4495;42.644;23.274;2024-03-02T07:21:24;22.15;;;11.32;;
8919;SDS011;4495;42.644;23.274;2024-03-02T07:23:49;26.15;;;10.85;;
8919;SDS011;4495;42.644;23.274;2024-03-02T07:26:15;23.10;;;10.52;;
8919;SDS011;4495;42.644;23.274;2024-03-02T07:28:43;26.33;;;10.75;;
8919;SDS011;4495;42.644;23.274;2024-03-02T07:31:09;26.42;;;10.20;;
8919;SDS011;4495;42.644;23.274;2024-03-02T07:33:35;26.35;;;11.52;;
8919;SDS011;4495;42.644;23.274;2024-03-02T07:36:00;24.50;;;9.65;;
8919;SDS011;4495;42.644;23.274;2024-03-02T07:38:26;19.33;;;9.20;;
8919;SDS011;4495;42.644;23.274;2024-03-02T07:40:52;18.77;;;9.65;;
8919;SDS011;4495;42.644;23.274;2024-03-02T07:43:19;19.35;;;10.00;;
8919;SDS011;4495;42.644;23.274;2024-03-02T07:45:48;19.77;;;10.13;;
8919;SDS011;4495;42.644;23.274;2024-03-02T07:48:14;21.40;;;9.15;;
8919;SDS011;4495;42.644;23.274;2024-03-02T07:50:40;20.33;;;9.23;;
8919;SDS011;4495;42.644;23.274;2024-03-02T07:53:05;24.00;;;9.70;;
8919;SDS011;4495;42.644;23.274;2024-03-02T07:55:32;22.25;;;10.52;;
8919;SDS011;4495;42.644;23.274;2024-03-02T07:57:58;23.80;;;10.60;;
8919;SDS011;4495;42.644;23.274;2024-03-02T08:00:23;32.15;;;13.48;;
8919;SDS011;4495;42.644;23.274;2024-03-02T08:02:50;27.17;;;12.18;;
8919;SDS011;4495;42.644;23.274;2024-03-02T08:05:17;23.73;;;11.68;;
8919;SDS011;4495;42.644;23.274;2024-03-02T08:07:44;29.17;;;11.25;;
8919;SDS011;4495;42.644;23.274;2024-03-02T08:10:10;26.27;;;11.73;;
8919;SDS011;4495;42.644;23.274;2024-03-02T08:12:36;25.85;;;10.95;;
8919;SDS011;4495;42.644;23.274;2024-03-02T08:15:01;27.85;;;11.73;;
8919;SDS011;4495;42.644;23.274;2024-03-02T08:17:27;25.73;;;10.63;;
8919;SDS011;4495;42.644;23.274;2024-03-02T08:19:52;23.60;;;10.80;;
8919;SDS011;4495;42.644;23.274;2024-03-02T08:22:18;26.13;;;10.63;;
8919;SDS011;4495;42.644;23.274;2024-03-02T08:24:44;22.90;;;11.43;;
8919;SDS011;4495;42.644;23.274;2024-03-02T08:27:10;26.00;;;11.30;;
8919;SDS011;4495;42.644;23.274;2024-03-02T08:29:37;28.55;;;12.52;;
8919;SDS011;4495;42.644;23.274;2024-03-02T08:32:02;26.40;;;12.23;;
8919;SDS011;4495;42.644;23.274;2024-03-02T08:34:28;30.60;;;12.52;;
8919;SDS011;4495;42.644;23.274;2024-03-02T08:36:53;26.13;;;11.95;;
8919;SDS011;4495;42.644;23.274;2024-03-02T08:39:19;32.30;;;13.25;;
8919;SDS011;4495;42.644;23.274;2024-03-02T08:41:46;29.58;;;13.07;;
8919;SDS011;4495;42.644;23.274;2024-03-02T08:44:12;29.45;;;12.23;;
8919;SDS011;4495;42.644;23.274;2024-03-02T08:46:39;25.17;;;11.20;;
8919;SDS011;4495;42.644;23.274;2024-03-02T08:49:05;25.58;;;11.90;;
8919;SDS011;4495;42.644;23.274;2024-03-02T08:51:31;25.33;;;11.50;;
8919;SDS011;4495;42.644;23.274;2024-03-02T08:53:56;22.58;;;11.05;;
8919;SDS011;4495;42.644;23.274;2024-03-02T08:56:23;22.25;;;10.27;;
8919;SDS011;4495;42.644;23.274;2024-03-02T08:58:49;21.02;;;9.60;;
8919;SDS011;4495;42.644;23.274;2024-03-02T09:01:15;18.73;;;9.30;;
8919;SDS011;4495;42.644;23.274;2024-03-02T09:03:41;22.40;;;9.13;;
8919;SDS011;4495;42.644;23.274;2024-03-02T09:06:11;22.17;;;10.27;;
8919;SDS011;4495;42.644;23.274;2024-03-02T09:08:37;28.02;;;12.60;;
8919;SDS011;4495;42.644;23.274;2024-03-02T09:11:04;26.13;;;11.95;;
8919;SDS011;4495;42.644;23.274;2024-03-02T09:15:55;28.02;;;13.43;;
8919;SDS011;4495;42.644;23.274;2024-03-02T09:18:21;24.30;;;11.52;;
8919;SDS011;4495;42.644;23.274;2024-03-02T09:20:47;22.88;;;11.23;;
8919;SDS011;4495;42.644;23.274;2024-03-02T09:23:12;27.02;;;11.50;;
8919;SDS011;4495;42.644;23.274;2024-03-02T09:25:38;24.60;;;11.60;;
8919;SDS011;4495;42.644;23.274;2024-03-02T09:28:03;28.45;;;12.00;;
8919;SDS011;4495;42.644;23.274;2024-03-02T09:30:29;25.20;;;11.73;;
8919;SDS011;4495;42.644;23.274;2024-03-02T09:32:54;23.38;;;11.23;;
8919;SDS011;4495;42.644;23.274;2024-03-02T09:35:19;25.23;;;11.75;;
8919;SDS011;4495;42.644;23.274;2024-03-02T09:37:45;26.40;;;12.18;;
8919;SDS011;4495;42.644;23.274;2024-03-02T09:40:11;29.08;;;12.73;;
8919;SDS011;4495;42.644;23.274;2024-03-02T09:42:38;28.02;;;12.77;;
8919;SDS011;4495;42.644;23.274;2024-03-02T09:45:04;26.50;;;11.75;;
8919;SDS011;4495;42.644;23.274;2024-03-02T09:49:56;25.30;;;10.88;;
8919;SDS011;4495;42.644;23.274;2024-03-02T09:52:24;26.60;;;12.05;;
8919;SDS011;4495;42.644;23.274;2024-03-02T09:54:50;27.02;;;12.68;;
8919;SDS011;4495;42.644;23.274;2024-03-02T09:57:16;25.35;;;11.30;;
8919;SDS011;4495;42.644;23.274;2024-03-02T09:59:41;24.50;;;11.38;;
8919;SDS011;4495;42.644;23.274;2024-03-02T10:02:07;24.50;;;11.57;;
8919;SDS011;4495;42.644;23.274;2024-03-02T10:04:33;28.73;;;13.50;;
8919;SDS011;4495;42.644;23.274;2024-03-02T10:09:36;29.95;;;13.13;;
8919;SDS011;4495;42.644;23.274;2024-03-02T10:12:05;30.90;;;13.18;;
8919;SDS011;4495;42.644;23.274;2024-03-02T10:14:32;26.90;;;12.55;;
8919;SDS011;4495;42.644;23.274;2024-03-02T10:17:04;31.35;;;13.95;;
8919;SDS011;4495;42.644;23.274;2024-03-02T10:19:31;26.58;;;10.95;;
8919;SDS011;4495;42.644;23.274;2024-03-02T10:22:06;29.20;;;12.65;;
8919;SDS011;4495;42.644;23.274;2024-03-02T10:27:17;24.83;;;11.23;;
8919;SDS011;4495;42.644;23.274;2024-03-02T10:29:46;29.27;;;11.80;;
8919;SDS011;4495;42.644;23.274;2024-03-02T10:32:13;30.00;;;13.05;;
8919;SDS011;4495;42.644;23.274;2024-03-02T10:34:42;29.13;;;13.40;;
8919;SDS011;4495;42.644;23.274;2024-03-02T10:37:13;29.10;;;13.63;;
8919;SDS011;4495;42.644;23.274;2024-03-02T10:39:39;27.48;;;12.55;;
8919;SDS011;4495;42.644;23.274;2024-03-02T10:42:05;31.27;;;12.30;;
8919;SDS011;4495;42.644;23.274;2024-03-02T10:44:32;29.83;;;13.02;;
8919;SDS011;4495;42.644;23.274;2024-03-02T10:47:03;29.17;;;12.13;;
8919;SDS011;4495;42.644;23.274;2024-03-02T10:49:30;31.30;;;14.30;;
8919;SDS011;4495;42.644;23.274;2024-03-02T10:51:57;33.10;;;14.95;;
8919;SDS011;4495;42.644;23.274;2024-03-02T10:54:23;36.08;;;13.70;;
8919;SDS011;4495;42.644;23.274;2024-03-02T10:56:52;36.15;;;14.45;;
8919;SDS011;4495;42.644;23.274;2024-03-02T10:59:35;35.83;;;15.15;;
8919;SDS011;4495;42.644;23.274;2024-03-02T11:02:04;36.72;;;14.77;;
8919;SDS011;4495;42.644;23.274;2024-03-02T11:04:33;35.35;;;14.50;;
8919;SDS011;4495;42.644;23.274;2024-03-02T11:07:02;33.80;;;15.18;;
8919;SDS011;4495;42.644;23.274;2024-03-02T11:09:29;32.53;;;14.73;;
8919;SDS011;4495;42.644;23.274;2024-03-02T11:12:03;33.58;;;13.77;;
8919;SDS011;4495;42.644;23.274;2024-03-02T11:14:37;32.50;;;13.88;;
8919;SDS011;4495;42.644;23.274;2024-03-02T11:17:08;33.35;;;13.85;;
8919;SDS011;4495;42.644;23.274;2024-03-02T11:19:35;34.67;;;14.07;;
8919;SDS011;4495;42.644;23.274;2024-03-02T11:22:04;31.83;;;13.23;;
8919;SDS011;4495;42.644;23.274;2024-03-02T11:24:31;31.60;;;13.25;;
8919;SDS011;4495;42.644;23.274;2024-03-02T11:27:03;31.10;;;13.55;;
8919;SDS011;4495;42.644;23.274;2024-03-02T11:32:15;35.30;;;14.18;;
8919;SDS011;4495;42.644;23.274;2024-03-02T11:34:43;29.05;;;12.25;;
8919;SDS011;4495;42.644;23.274;2024-03-02T11:37:13;34.17;;;13.90;;
8919;SDS011;4495;42.644;23.274;2024-03-02T11:39:39;38.03;;;15.15;;
8919;SDS011;4495;42.644;23.274;2024-03-02T11:42:06;32.90;;;14.65;;
8919;SDS011;4495;42.644;23.274;2024-03-02T11:44:34;30.05;;;13.35;;
8919;SDS011;4495;42.644;23.274;2024-03-02T11:47:01;30.35;;;13.50;;
8919;SDS011;4495;42.644;23.274;2024-03-02T11:49:37;30.83;;;13.02;;
8919;SDS011;4495;42.644;23.274;2024-03-02T11:52:14;31.38;;;12.13;;
8919;SDS011;4495;42.644;23.274;2024-03-02T11:54:42;34.35;;;13.35;;
8919;SDS011;4495;42.644;23.274;2024-03-02T11:57:12;29.80;;;12.98;;
8919;SDS011;4495;42.644;23.274;2024-03-02T11:59:39;33.13;;;13.27;;
8919;SDS011;4495;42.644;23.274;2024-03-02T12:02:05;31.45;;;13.63;;
8919;SDS011;4495;42.644;23.274;2024-03-02T12:04:31;35.38;;;16.00;;
8919;SDS011;4495;42.644;23.274;2024-03-02T12:06:57;30.73;;;13.63;;
8919;SDS011;4495;42.644;23.274;2024-03-02T12:09:29;39.17;;;13.20;;
8919;SDS011;4495;42.644;23.274;2024-03-02T12:12:05;31.63;;;13.32;;
8919;SDS011;4495;42.644;23.274;2024-03-02T12:14:32;30.05;;;13.25;;
8919;SDS011;4495;42.644;23.274;2024-03-02T12:16:58;33.05;;;13.95;;
8919;SDS011;4495;42.644;23.274;2024-03-02T12:19:24;29.35;;;12.57;;
8919;SDS011;4495;42.644;23.274;2024-03-02T12:21:51;34.35;;;14.70;;
8919;SDS011;4495;42.644;23.274;2024-03-02T12:24:17;28.13;;;14.05;;
8919;SDS011;4495;42.644;23.274;2024-03-02T12:26:43;27.65;;;12.95;;
8919;SDS011;4495;42.644;23.274;2024-03-02T12:29:09;30.42;;;13.23;;
8919;SDS011;4495;42.644;23.274;2024-03-02T12:31:35;27.70;;;12.70;;
8919;SDS011;4495;42.644;23.274;2024-03-02T12:34:01;29.80;;;13.50;;
8919;SDS011;4495;42.644;23.274;2024-03-02T12:36:28;39.30;;;13.73;;
8919;SDS011;4495;42.644;23.274;2024-03-02T12:38:53;29.17;;;13.63;;
8919;SDS011;4495;42.644;23.274;2024-03-02T12:41:20;30.90;;;14.57;;
8919;SDS011;4495;42.644;23.274;2024-03-02T12:43:46;29.33;;;14.30;;
8919;SDS011;4495;42.644;23.274;2024-03-02T12:46:11;31.55;;;15.20;;
8919;SDS011;4495;42.644;23.274;2024-03-02T12:48:37;32.30;;;14.13;;
8919;SDS011;4495;42.644;23.274;2024-03-02T12:51:06;30.92;;;14.95;;
8919;SDS011;4495;42.644;23.274;2024-03-02T12:53:31;34.85;;;14.65;;
8919;SDS011;4495;42.644;23.274;2024-03-02T12:55:57;29.38;;;13.27;;
8919;SDS011;4495;42.644;23.274;2024-03-02T12:58:23;27.98;;;14.27;;
8919;SDS011;4495;42.644;23.274;2024-03-02T13:00:49;29.77;;;13.68;;
8919;SDS011;4495;42.644;23.274;2024-03-02T13:03:14;33.53;;;14.57;;
8919;SDS011;4495;42.644;23.274;2024-03-02T13:05:43;33.15;;;14.30;;
8919;SDS011;4495;42.644;23.274;2024-03-02T13:08:13;27.08;;;13.15;;
8919;SDS011;4495;42.644;23.274;2024-03-02T13:10:39;30.27;;;14.38;;
8919;SDS011;4495;42.644;23.274;2024-03-02T13:13:06;31.75;;;14.32;;
8919;SDS011;4495;42.644;23.274;2024-03-02T13:15:32;37.35;;;15.82;;
8919;SDS011;4495;42.644;23.274;2024-03-02T13:17:58;37.95;;;15.57;;
8919;SDS011;4495;42.644;23.274;2024-03-02T13:20:29;32.78;;;13.73;;
8919;SDS011;4495;42.644;23.274;2024-03-02T13:22:56;31.75;;;14.77;;
8919;SDS011;4495;42.644;23.274;2024-03-02T13:25:22;30.65;;;13.63;;
8919;SDS011;4495;42.644;23.274;2024-03-02T13:27:47;32.95;;;14.93;;
8919;SDS011;4495;42.644;23.274;2024-03-02T13:30:13;32.17;;;14.48;;
8919;SDS011;4495;42.644;23.274;2024-03-02T13:32:38;30.33;;;14.48;;
8919;SDS011;4495;42.644;23.274;2024-03-02T13:35:04;28.50;;;14.38;;
8919;SDS011;4495;42.644;23.274;2024-03-02T13:37:29;32.47;;;13.32;;
8919;SDS011;4495;42.644;23.274;2024-03-02T13:39:55;31.17;;;14.80;;
8919;SDS011;4495;42.644;23.274;2024-03-02T13:42:20;39.70;;;17.17;;
8919;SDS011;4495;42.644;23.274;2024-03-02T13:44:46;33.45;;;15.68;;
8919;SDS011;4495;42.644;23.274;2024-03-02T13:47:13;33.10;;;14.73;;
8919;SDS011;4495;42.644;23.274;2024-03-02T13:49:38;30.88;;;13.43;;
8919;SDS011;4495;42.644;23.274;2024-03-02T13:52:08;32.70;;;14.25;;
8919;SDS011;4495;42.644;23.274;2024-03-02T13:54:41;34.28;;;15.73;;
8919;SDS011;4495;42.644;23.274;2024-03-02T13:57:08;34.67;;;15.82;;
8919;SDS011;4495;42.644;23.274;2024-03-02T13:59:35;32.97;;;15.45;;
8919;SDS011;4495;42.644;23.274;2024-03-02T14:02:06;32.78;;;15.20;;
8919;SDS011;4495;42.644;23.274;2024-03-02T14:04:33;35.90;;;15.48;;
8919;SDS011;4495;42.644;23.274;2024-03-02T14:07:00;30.85;;;15.43;;
8919;SDS011;4495;42.644;23.274;2024-03-02T14:09:26;32.08;;;15.70;;
8919;SDS011;4495;42.644;23.274;2024-03-02T14:11:52;30.65;;;15.68;;
8919;SDS011;4495;42.644;23.274;2024-03-02T14:14:18;35.60;;;16.35;;
8919;SDS011;4495;42.644;23.274;2024-03-02T14:16:43;30.42;;;16.10;;
8919;SDS011;4495;42.644;23.274;2024-03-02T14:19:10;33.50;;;16.58;;
8919;SDS011;4495;42.644;23.274;2024-03-02T14:24:01;30.52;;;14.75;;
8919;SDS011;4495;42.644;23.274;2024-03-02T14:26:27;35.95;;;16.42;;
8919;SDS011;4495;42.644;23.274;2024-03-02T14:28:53;40.28;;;18.55;;
8919;SDS011;4495;42.644;23.274;2024-03-02T14:31:19;46.03;;;19.30;;
8919;SDS011;4495;42.644;23.274;2024-03-02T14:33:45;41.65;;;19.00;;
8919;SDS011;4495;42.644;23.274;2024-03-02T14:36:11;40.45;;;17.52;;
8919;SDS011;4495;42.644;23.274;2024-03-02T14:38:36;42.55;;;19.02;;
8919;SDS011;4495;42.644;23.274;2024-03-02T14:43:28;39.28;;;18.60;;
8919;SDS011;4495;42.644;23.274;2024-03-02T14:45:54;41.22;;;19.02;;
8919;SDS011;4495;42.644;23.274;2024-03-02T14:48:20;42.30;;;18.20;;